sensor_id;sensor_type;location;lat;lon;timestamp;temperature;humidity
20700;DHT22;10511;51.232;9.420;2023-09-19T00:01:02;16.80;99.90
20700;DHT22;10511;51.232;9.420;2023-09-19T00:03:31;16.70;99.90
20700;DHT22;10511;51.232;9.420;2023-09-19T00:05:59;16.60;99.90
20700;DHT22;10511;51.232;9.420;2023-09-19T00:08:26;16.50;99.90
20700;DHT22;10511;51.232;9.420;2023-09-19T00:10:54;16.40;99.90
20700;DHT22;10511;51.232;9.420;2023-09-19T00:13:23;16.30;99.90
20700;DHT22;10511;51.232;9.420;2023-09-19T00:15:50;16.40;99.90
20700;DHT22;10511;51.232;9.420;2023-09-19T00:18:18;16.40;99.90
20700;DHT22;10511;51.232;9.420;2023-09-19T00:20:47;16.50;99.90
20700;DHT22;10511;51.232;9.420;2023-09-19T00:23:15;16.50;99.90
20700;DHT22;10511;51.232;9.420;2023-09-19T00:25:42;16.60;99.90
20700;DHT22;10511;51.232;9.420;2023-09-19T00:28:09;16.50;99.90
20700;DHT22;10511;51.232;9.420;2023-09-19T00:30:37;16.60;99.90
20700;DHT22;10511;51.232;9.420;2023-09-19T00:33:05;16.60;99.90
20700;DHT22;10511;51.232;9.420;2023-09-19T00:35:33;16.50;99.90
20700;DHT22;10511;51.232;9.420;2023-09-19T00:38:00;16.40;99.90
20700;DHT22;10511;51.232;9.420;2023-09-19T00:40:29;16.40;99.90
20700;DHT22;10511;51.232;9.420;2023-09-19T00:42:58;16.30;99.90
20700;DHT22;10511;51.232;9.420;2023-09-19T00:45:26;16.30;99.90
20700;DHT22;10511;51.232;9.420;2023-09-19T00:47:55;16.20;99.90
20700;DHT22;10511;51.232;9.420;2023-09-19T00:50:25;16.10;99.90
20700;DHT22;10511;51.232;9.420;2023-09-19T00:52:58;16.10;99.90
20700;DHT22;10511;51.232;9.420;2023-09-19T00:55:26;16.00;99.90
20700;DHT22;10511;51.232;9.420;2023-09-19T00:57:56;16.00;99.90
20700;DHT22;10511;51.232;9.420;2023-09-19T01:00:23;16.00;99.90
20700;DHT22;10511;51.232;9.420;2023-09-19T01:02:50;16.00;99.90
20700;DHT22;10511;51.232;9.420;2023-09-19T01:05:19;16.00;99.90
20700;DHT22;10511;51.232;9.420;2023-09-19T01:07:46;16.00;99.90
20700;DHT22;10511;51.232;9.420;2023-09-19T01:10:15;15.80;99.90
20700;DHT22;10511;51.232;9.420;2023-09-19T01:12:51;15.80;99.90
20700;DHT22;10511;51.232;9.420;2023-09-19T01:15:28;15.70;99.90
20700;DHT22;10511;51.232;9.420;2023-09-19T01:18:07;15.60;99.90
20700;DHT22;10511;51.232;9.420;2023-09-19T01:20:41;15.60;99.90
20700;DHT22;10511;51.232;9.420;2023-09-19T01:23:15;15.60;99.90
20700;DHT22;10511;51.232;9.420;2023-09-19T01:26:05;15.50;99.90
20700;DHT22;10511;51.232;9.420;2023-09-19T01:28:51;15.50;99.90
20700;DHT22;10511;51.232;9.420;2023-09-19T01:31:23;15.50;99.90
20700;DHT22;10511;51.232;9.420;2023-09-19T01:33:58;15.50;99.90
20700;DHT22;10511;51.232;9.420;2023-09-19T01:36:30;15.50;99.90
20700;DHT22;10511;51.232;9.420;2023-09-19T01:39:00;15.60;99.90
20700;DHT22;10511;51.232;9.420;2023-09-19T01:41:49;15.60;99.90
20700;DHT22;10511;51.232;9.420;2023-09-19T01:44:24;15.60;99.90
20700;DHT22;10511;51.232;9.420;2023-09-19T01:46:56;15.60;99.90
20700;DHT22;10511;51.232;9.420;2023-09-19T01:49:31;15.60;99.90
20700;DHT22;10511;51.232;9.420;2023-09-19T01:52:05;15.60;99.90
20700;DHT22;10511;51.232;9.420;2023-09-19T01:54:54;15.60;99.90
20700;DHT22;10511;51.232;9.420;2023-09-19T01:57:26;15.60;99.90
20700;DHT22;10511;51.232;9.420;2023-09-19T02:00:01;15.60;99.90
20700;DHT22;10511;51.232;9.420;2023-09-19T02:05:01;15.60;99.90
20700;DHT22;10511;51.232;9.420;2023-09-19T02:07:29;15.50;99.90
20700;DHT22;10511;51.232;9.420;2023-09-19T02:09:57;15.60;99.90
20700;DHT22;10511;51.232;9.420;2023-09-19T02:12:25;15.50;99.90
20700;DHT22;10511;51.232;9.420;2023-09-19T02:14:52;15.50;99.90
20700;DHT22;10511;51.232;9.420;2023-09-19T02:17:18;15.40;99.90
20700;DHT22;10511;51.232;9.420;2023-09-19T02:19:47;15.50;99.90
20700;DHT22;10511;51.232;9.420;2023-09-19T02:22:14;15.50;99.90
20700;DHT22;10511;51.232;9.420;2023-09-19T02:24:41;15.40;99.90
20700;DHT22;10511;51.232;9.420;2023-09-19T02:27:09;15.40;99.90
20700;DHT22;10511;51.232;9.420;2023-09-19T02:29:38;15.40;99.90
20700;DHT22;10511;51.232;9.420;2023-09-19T02:32:05;15.30;99.90
20700;DHT22;10511;51.232;9.420;2023-09-19T02:34:32;15.30;99.90
20700;DHT22;10511;51.232;9.420;2023-09-19T02:37:03;15.30;99.90
20700;DHT22;10511;51.232;9.420;2023-09-19T02:39:31;15.30;99.90
20700;DHT22;10511;51.232;9.420;2023-09-19T02:41:58;15.30;99.90
20700;DHT22;10511;51.232;9.420;2023-09-19T02:44:25;15.30;99.90
20700;DHT22;10511;51.232;9.420;2023-09-19T02:46:53;15.30;99.90
20700;DHT22;10511;51.232;9.420;2023-09-19T02:49:20;15.30;99.90
20700;DHT22;10511;51.232;9.420;2023-09-19T02:51:47;15.20;99.90
20700;DHT22;10511;51.232;9.420;2023-09-19T02:54:15;15.10;99.90
20700;DHT22;10511;51.232;9.420;2023-09-19T02:56:43;15.10;99.90
20700;DHT22;10511;51.232;9.420;2023-09-19T02:59:10;15.10;99.90
20700;DHT22;10511;51.232;9.420;2023-09-19T03:01:37;15.00;99.90
20700;DHT22;10511;51.232;9.420;2023-09-19T03:04:04;15.00;99.90
20700;DHT22;10511;51.232;9.420;2023-09-19T03:06:36;15.00;99.90
20700;DHT22;10511;51.232;9.420;2023-09-19T03:09:04;15.00;99.90
20700;DHT22;10511;51.232;9.420;2023-09-19T03:11:40;15.00;99.90
20700;DHT22;10511;51.232;9.420;2023-09-19T03:14:07;14.90;99.90
20700;DHT22;10511;51.232;9.420;2023-09-19T03:16:35;14.90;99.90
20700;DHT22;10511;51.232;9.420;2023-09-19T03:19:03;14.90;99.90
20700;DHT22;10511;51.232;9.420;2023-09-19T03:21:30;14.80;99.90
20700;DHT22;10511;51.232;9.420;2023-09-19T03:23:57;14.80;99.90
20700;DHT22;10511;51.232;9.420;2023-09-19T03:26:24;14.70;99.90
20700;DHT22;10511;51.232;9.420;2023-09-19T03:28:53;14.70;99.90
20700;DHT22;10511;51.232;9.420;2023-09-19T03:31:20;14.70;99.90
20700;DHT22;10511;51.232;9.420;2023-09-19T03:33:47;14.70;99.90
20700;DHT22;10511;51.232;9.420;2023-09-19T03:36:14;14.70;99.90
20700;DHT22;10511;51.232;9.420;2023-09-19T03:38:41;14.80;99.90
20700;DHT22;10511;51.232;9.420;2023-09-19T03:41:08;14.80;99.90
20700;DHT22;10511;51.232;9.420;2023-09-19T03:43:39;14.80;99.90
20700;DHT22;10511;51.232;9.420;2023-09-19T03:46:08;14.90;99.90
20700;DHT22;10511;51.232;9.420;2023-09-19T03:48:35;14.90;99.90
20700;DHT22;10511;51.232;9.420;2023-09-19T03:51:02;14.90;99.90
20700;DHT22;10511;51.232;9.420;2023-09-19T03:53:29;15.00;99.90
20700;DHT22;10511;51.232;9.420;2023-09-19T03:55:55;15.00;99.90
20700;DHT22;10511;51.232;9.420;2023-09-19T03:58:22;15.00;99.90
20700;DHT22;10511;51.232;9.420;2023-09-19T04:00:50;15.00;99.90
20700;DHT22;10511;51.232;9.420;2023-09-19T04:03:18;15.00;99.90
20700;DHT22;10511;51.232;9.420;2023-09-19T04:05:46;15.10;99.90
20700;DHT22;10511;51.232;9.420;2023-09-19T04:08:13;15.00;99.90
20700;DHT22;10511;51.232;9.420;2023-09-19T04:10:42;15.00;99.90
20700;DHT22;10511;51.232;9.420;2023-09-19T04:13:10;15.00;99.90
20700;DHT22;10511;51.232;9.420;2023-09-19T04:15:37;15.00;99.90
20700;DHT22;10511;51.232;9.420;2023-09-19T04:18:06;15.00;99.90
20700;DHT22;10511;51.232;9.420;2023-09-19T04:20:34;15.00;99.90
20700;DHT22;10511;51.232;9.420;2023-09-19T04:23:01;15.10;99.90
20700;DHT22;10511;51.232;9.420;2023-09-19T04:25:30;15.10;99.90
20700;DHT22;10511;51.232;9.420;2023-09-19T04:27:57;15.20;99.90
20700;DHT22;10511;51.232;9.420;2023-09-19T04:30:24;15.10;99.90
20700;DHT22;10511;51.232;9.420;2023-09-19T04:32:58;15.10;99.90
20700;DHT22;10511;51.232;9.420;2023-09-19T04:35:27;15.20;99.90
20700;DHT22;10511;51.232;9.420;2023-09-19T04:37:56;15.10;99.90
20700;DHT22;10511;51.232;9.420;2023-09-19T04:40:23;15.10;99.90
20700;DHT22;10511;51.232;9.420;2023-09-19T04:42:53;15.00;99.90
20700;DHT22;10511;51.232;9.420;2023-09-19T04:45:22;15.00;99.90
20700;DHT22;10511;51.232;9.420;2023-09-19T04:47:49;15.00;99.90
20700;DHT22;10511;51.232;9.420;2023-09-19T04:50:16;14.90;99.90
20700;DHT22;10511;51.232;9.420;2023-09-19T04:52:43;15.00;99.90
20700;DHT22;10511;51.232;9.420;2023-09-19T04:55:12;15.00;99.90
20700;DHT22;10511;51.232;9.420;2023-09-19T04:57:42;15.00;99.90
20700;DHT22;10511;51.232;9.420;2023-09-19T05:00:11;14.90;99.90
20700;DHT22;10511;51.232;9.420;2023-09-19T05:02:40;14.90;99.90
20700;DHT22;10511;51.232;9.420;2023-09-19T05:05:09;15.00;99.90
20700;DHT22;10511;51.232;9.420;2023-09-19T05:07:37;14.90;99.90
20700;DHT22;10511;51.232;9.420;2023-09-19T05:10:04;14.90;99.90
20700;DHT22;10511;51.232;9.420;2023-09-19T05:12:34;14.80;99.90
20700;DHT22;10511;51.232;9.420;2023-09-19T05:15:02;14.80;99.90
20700;DHT22;10511;51.232;9.420;2023-09-19T05:17:29;14.80;99.90
20700;DHT22;10511;51.232;9.420;2023-09-19T05:19:56;14.80;99.90
20700;DHT22;10511;51.232;9.420;2023-09-19T05:22:23;14.80;99.90
20700;DHT22;10511;51.232;9.420;2023-09-19T05:24:51;14.80;99.90
20700;DHT22;10511;51.232;9.420;2023-09-19T05:27:18;14.80;99.90
20700;DHT22;10511;51.232;9.420;2023-09-19T05:29:47;14.80;99.90
20700;DHT22;10511;51.232;9.420;2023-09-19T05:32:16;14.80;99.90
20700;DHT22;10511;51.232;9.420;2023-09-19T05:34:45;14.80;99.90
20700;DHT22;10511;51.232;9.420;2023-09-19T05:37:13;14.80;99.90
20700;DHT22;10511;51.232;9.420;2023-09-19T05:39:42;14.80;99.90
20700;DHT22;10511;51.232;9.420;2023-09-19T05:42:09;14.80;99.90
20700;DHT22;10511;51.232;9.420;2023-09-19T05:44:36;14.80;99.90
20700;DHT22;10511;51.232;9.420;2023-09-19T05:47:05;14.80;99.90
20700;DHT22;10511;51.232;9.420;2023-09-19T05:49:34;14.80;99.90
20700;DHT22;10511;51.232;9.420;2023-09-19T05:52:04;14.80;99.90
20700;DHT22;10511;51.232;9.420;2023-09-19T05:54:31;14.70;99.90
20700;DHT22;10511;51.232;9.420;2023-09-19T05:56:58;14.70;99.90
20700;DHT22;10511;51.232;9.420;2023-09-19T05:59:25;14.70;99.90
20700;DHT22;10511;51.232;9.420;2023-09-19T06:01:52;14.70;99.90
20700;DHT22;10511;51.232;9.420;2023-09-19T06:04:20;14.70;99.90
20700;DHT22;10511;51.232;9.420;2023-09-19T06:06:48;14.70;99.90
20700;DHT22;10511;51.232;9.420;2023-09-19T06:09:15;14.70;99.90
20700;DHT22;10511;51.232;9.420;2023-09-19T06:11:42;14.70;99.90
20700;DHT22;10511;51.232;9.420;2023-09-19T06:14:09;14.80;99.90
20700;DHT22;10511;51.232;9.420;2023-09-19T06:16:37;14.80;99.90
20700;DHT22;10511;51.232;9.420;2023-09-19T06:19:05;14.80;99.90
20700;DHT22;10511;51.232;9.420;2023-09-19T06:21:36;14.80;99.90
20700;DHT22;10511;51.232;9.420;2023-09-19T06:24:03;14.90;99.90
20700;DHT22;10511;51.232;9.420;2023-09-19T06:26:30;14.80;99.90
20700;DHT22;10511;51.232;9.420;2023-09-19T06:28:57;14.80;99.90
20700;DHT22;10511;51.232;9.420;2023-09-19T06:31:25;14.80;99.90
20700;DHT22;10511;51.232;9.420;2023-09-19T06:33:52;14.80;99.90
20700;DHT22;10511;51.232;9.420;2023-09-19T06:36:19;14.70;99.90
20700;DHT22;10511;51.232;9.420;2023-09-19T06:38:49;14.70;99.90
20700;DHT22;10511;51.232;9.420;2023-09-19T06:41:16;14.60;99.90
20700;DHT22;10511;51.232;9.420;2023-09-19T06:43:44;14.60;99.90
20700;DHT22;10511;51.232;9.420;2023-09-19T06:46:11;14.60;99.90
20700;DHT22;10511;51.232;9.420;2023-09-19T06:48:38;14.70;99.90
20700;DHT22;10511;51.232;9.420;2023-09-19T06:51:06;14.70;99.90
20700;DHT22;10511;51.232;9.420;2023-09-19T06:53:33;14.70;99.90
20700;DHT22;10511;51.232;9.420;2023-09-19T06:56:03;14.80;99.90
20700;DHT22;10511;51.232;9.420;2023-09-19T06:58:30;14.80;99.90
20700;DHT22;10511;51.232;9.420;2023-09-19T07:00:58;14.80;99.90
20700;DHT22;10511;51.232;9.420;2023-09-19T07:03:25;14.90;99.90
20700;DHT22;10511;51.232;9.420;2023-09-19T07:05:54;14.80;99.90
20700;DHT22;10511;51.232;9.420;2023-09-19T07:08:21;14.90;99.90
20700;DHT22;10511;51.232;9.420;2023-09-19T07:10:48;14.90;99.90
20700;DHT22;10511;51.232;9.420;2023-09-19T07:13:18;14.80;99.90
20700;DHT22;10511;51.232;9.420;2023-09-19T07:15:45;14.80;99.90
20700;DHT22;10511;51.232;9.420;2023-09-19T07:18:16;14.90;99.90
20700;DHT22;10511;51.232;9.420;2023-09-19T07:20:43;14.90;99.90
20700;DHT22;10511;51.232;9.420;2023-09-19T07:23:14;15.00;99.90
20700;DHT22;10511;51.232;9.420;2023-09-19T07:25:44;15.00;99.90
20700;DHT22;10511;51.232;9.420;2023-09-19T07:28:12;15.00;99.90
20700;DHT22;10511;51.232;9.420;2023-09-19T07:30:41;15.00;99.90
20700;DHT22;10511;51.232;9.420;2023-09-19T07:33:08;15.00;99.90
20700;DHT22;10511;51.232;9.420;2023-09-19T07:35:36;15.00;99.90
20700;DHT22;10511;51.232;9.420;2023-09-19T07:38:05;15.00;99.90
20700;DHT22;10511;51.232;9.420;2023-09-19T07:40:32;15.00;99.90
20700;DHT22;10511;51.232;9.420;2023-09-19T07:42:59;15.10;99.90
20700;DHT22;10511;51.232;9.420;2023-09-19T07:45:27;15.10;99.90
20700;DHT22;10511;51.232;9.420;2023-09-19T07:47:57;15.10;99.90
20700;DHT22;10511;51.232;9.420;2023-09-19T07:50:25;15.20;99.90
20700;DHT22;10511;51.232;9.420;2023-09-19T07:52:52;15.20;99.90
20700;DHT22;10511;51.232;9.420;2023-09-19T07:55:20;15.20;99.90
20700;DHT22;10511;51.232;9.420;2023-09-19T07:57:49;15.30;99.90
20700;DHT22;10511;51.232;9.420;2023-09-19T08:00:16;15.20;99.90
20700;DHT22;10511;51.232;9.420;2023-09-19T08:02:43;15.20;99.90
20700;DHT22;10511;51.232;9.420;2023-09-19T08:05:13;15.20;99.90
20700;DHT22;10511;51.232;9.420;2023-09-19T08:07:43;15.30;99.90
20700;DHT22;10511;51.232;9.420;2023-09-19T08:10:11;15.30;99.90
20700;DHT22;10511;51.232;9.420;2023-09-19T08:12:39;15.30;99.90
20700;DHT22;10511;51.232;9.420;2023-09-19T08:15:12;15.30;99.90
20700;DHT22;10511;51.232;9.420;2023-09-19T08:17:39;15.40;99.90
20700;DHT22;10511;51.232;9.420;2023-09-19T08:20:07;15.40;99.90
20700;DHT22;10511;51.232;9.420;2023-09-19T08:22:43;15.40;99.90
20700;DHT22;10511;51.232;9.420;2023-09-19T08:25:13;15.50;99.90
20700;DHT22;10511;51.232;9.420;2023-09-19T08:27:42;15.60;99.90
20700;DHT22;10511;51.232;9.420;2023-09-19T08:30:11;15.60;99.90
20700;DHT22;10511;51.232;9.420;2023-09-19T08:32:38;15.60;99.90
20700;DHT22;10511;51.232;9.420;2023-09-19T08:35:08;15.60;99.90
20700;DHT22;10511;51.232;9.420;2023-09-19T08:37:36;15.60;99.90
20700;DHT22;10511;51.232;9.420;2023-09-19T08:40:05;15.60;99.90
20700;DHT22;10511;51.232;9.420;2023-09-19T08:42:47;15.60;99.90
20700;DHT22;10511;51.232;9.420;2023-09-19T08:45:15;15.60;99.90
20700;DHT22;10511;51.232;9.420;2023-09-19T08:47:53;15.70;99.90
20700;DHT22;10511;51.232;9.420;2023-09-19T08:50:26;15.80;99.90
20700;DHT22;10511;51.232;9.420;2023-09-19T08:52:55;15.90;99.90
20700;DHT22;10511;51.232;9.420;2023-09-19T08:55:28;15.90;99.90
20700;DHT22;10511;51.232;9.420;2023-09-19T08:58:00;15.90;99.90
20700;DHT22;10511;51.232;9.420;2023-09-19T09:00:29;15.90;99.90
20700;DHT22;10511;51.232;9.420;2023-09-19T09:02:58;16.00;99.90
20700;DHT22;10511;51.232;9.420;2023-09-19T09:05:27;16.00;99.90
20700;DHT22;10511;51.232;9.420;2023-09-19T09:07:55;16.10;99.90
20700;DHT22;10511;51.232;9.420;2023-09-19T09:10:25;16.20;99.90
20700;DHT22;10511;51.232;9.420;2023-09-19T09:12:53;16.30;99.90
20700;DHT22;10511;51.232;9.420;2023-09-19T09:15:21;16.40;99.90
20700;DHT22;10511;51.232;9.420;2023-09-19T09:17:49;16.40;99.90
20700;DHT22;10511;51.232;9.420;2023-09-19T09:20:16;16.40;99.90
20700;DHT22;10511;51.232;9.420;2023-09-19T09:22:53;16.40;99.90
20700;DHT22;10511;51.232;9.420;2023-09-19T09:25:22;16.30;99.90
20700;DHT22;10511;51.232;9.420;2023-09-19T09:28:01;16.40;99.90
20700;DHT22;10511;51.232;9.420;2023-09-19T09:30:33;16.50;99.90
20700;DHT22;10511;51.232;9.420;2023-09-19T09:33:10;16.50;99.90
20700;DHT22;10511;51.232;9.420;2023-09-19T09:35:38;16.50;99.90
20700;DHT22;10511;51.232;9.420;2023-09-19T09:38:13;16.50;99.90
20700;DHT22;10511;51.232;9.420;2023-09-19T09:40:49;16.50;99.90
20700;DHT22;10511;51.232;9.420;2023-09-19T09:43:29;16.60;99.90
20700;DHT22;10511;51.232;9.420;2023-09-19T09:46:14;16.70;99.90
20700;DHT22;10511;51.232;9.420;2023-09-19T09:49:02;16.90;99.90
20700;DHT22;10511;51.232;9.420;2023-09-19T09:52:00;16.90;99.90
20700;DHT22;10511;51.232;9.420;2023-09-19T09:54:31;16.80;99.90
20700;DHT22;10511;51.232;9.420;2023-09-19T09:57:04;16.80;99.90
20700;DHT22;10511;51.232;9.420;2023-09-19T09:59:49;16.80;99.90
20700;DHT22;10511;51.232;9.420;2023-09-19T10:02:17;16.80;99.90
20700;DHT22;10511;51.232;9.420;2023-09-19T10:04:52;16.90;99.90
20700;DHT22;10511;51.232;9.420;2023-09-19T10:07:25;17.10;99.90
20700;DHT22;10511;51.232;9.420;2023-09-19T10:09:58;17.00;99.90
20700;DHT22;10511;51.232;9.420;2023-09-19T10:12:37;16.80;99.90
20700;DHT22;10511;51.232;9.420;2023-09-19T10:15:08;16.80;99.90
20700;DHT22;10511;51.232;9.420;2023-09-19T10:17:40;17.00;99.90
20700;DHT22;10511;51.232;9.420;2023-09-19T10:20:12;17.20;99.90
20700;DHT22;10511;51.232;9.420;2023-09-19T10:23:00;17.20;99.90
20700;DHT22;10511;51.232;9.420;2023-09-19T10:25:28;17.20;99.90
20700;DHT22;10511;51.232;9.420;2023-09-19T10:27:57;17.20;99.90
20700;DHT22;10511;51.232;9.420;2023-09-19T10:30:27;17.10;99.90
20700;DHT22;10511;51.232;9.420;2023-09-19T10:33:00;17.10;99.90
20700;DHT22;10511;51.232;9.420;2023-09-19T10:35:27;17.10;99.90
20700;DHT22;10511;51.232;9.420;2023-09-19T10:37:57;17.10;99.90
20700;DHT22;10511;51.232;9.420;2023-09-19T10:40:25;17.10;99.90
20700;DHT22;10511;51.232;9.420;2023-09-19T10:43:01;17.20;99.90
20700;DHT22;10511;51.232;9.420;2023-09-19T10:45:33;17.30;99.90
20700;DHT22;10511;51.232;9.420;2023-09-19T10:48:01;17.40;99.90
20700;DHT22;10511;51.232;9.420;2023-09-19T10:50:33;17.40;99.90
20700;DHT22;10511;51.232;9.420;2023-09-19T10:53:05;17.50;99.90
20700;DHT22;10511;51.232;9.420;2023-09-19T10:55:34;17.50;99.90
20700;DHT22;10511;51.232;9.420;2023-09-19T10:58:02;17.40;99.90
20700;DHT22;10511;51.232;9.420;2023-09-19T11:00:53;17.40;99.90
20700;DHT22;10511;51.232;9.420;2023-09-19T11:03:21;17.40;99.90
20700;DHT22;10511;51.232;9.420;2023-09-19T11:06:04;17.40;99.90
20700;DHT22;10511;51.232;9.420;2023-09-19T11:08:57;17.50;99.90
20700;DHT22;10511;51.232;9.420;2023-09-19T11:11:40;17.60;99.90
20700;DHT22;10511;51.232;9.420;2023-09-19T11:14:15;17.50;99.90
20700;DHT22;10511;51.232;9.420;2023-09-19T11:20:30;17.70;99.90
20700;DHT22;10511;51.232;9.420;2023-09-19T11:23:23;17.80;99.90
20700;DHT22;10511;51.232;9.420;2023-09-19T11:25:51;18.00;99.90
20700;DHT22;10511;51.232;9.420;2023-09-19T11:28:32;18.30;99.90
20700;DHT22;10511;51.232;9.420;2023-09-19T11:40:12;18.40;99.90
20700;DHT22;10511;51.232;9.420;2023-09-19T11:42:44;18.50;99.90
20700;DHT22;10511;51.232;9.420;2023-09-19T11:48:23;18.20;99.90
20700;DHT22;10511;51.232;9.420;2023-09-19T11:50:53;18.10;99.90
20700;DHT22;10511;51.232;9.420;2023-09-19T11:53:20;18.30;99.90
20700;DHT22;10511;51.232;9.420;2023-09-19T11:55:50;18.30;99.90
20700;DHT22;10511;51.232;9.420;2023-09-19T11:58:18;18.40;99.90
20700;DHT22;10511;51.232;9.420;2023-09-19T12:00:45;18.70;99.90
20700;DHT22;10511;51.232;9.420;2023-09-19T12:03:13;18.60;99.90
20700;DHT22;10511;51.232;9.420;2023-09-19T12:05:40;18.60;99.90
20700;DHT22;10511;51.232;9.420;2023-09-19T12:08:07;18.90;99.90
20700;DHT22;10511;51.232;9.420;2023-09-19T12:10:45;18.80;99.90
20700;DHT22;10511;51.232;9.420;2023-09-19T12:13:17;19.00;99.90
20700;DHT22;10511;51.232;9.420;2023-09-19T12:15:44;18.90;99.90
20700;DHT22;10511;51.232;9.420;2023-09-19T12:18:26;19.00;99.90
20700;DHT22;10511;51.232;9.420;2023-09-19T12:20:53;19.10;99.90
20700;DHT22;10511;51.232;9.420;2023-09-19T12:23:21;19.10;99.90
20700;DHT22;10511;51.232;9.420;2023-09-19T12:25:48;19.20;99.90
20700;DHT22;10511;51.232;9.420;2023-09-19T12:28:20;19.10;99.90
20700;DHT22;10511;51.232;9.420;2023-09-19T12:30:48;18.90;99.90
20700;DHT22;10511;51.232;9.420;2023-09-19T12:33:17;18.80;99.90
20700;DHT22;10511;51.232;9.420;2023-09-19T12:35:46;19.10;99.90
20700;DHT22;10511;51.232;9.420;2023-09-19T12:38:23;19.40;99.90
20700;DHT22;10511;51.232;9.420;2023-09-19T12:40:51;19.30;99.90
20700;DHT22;10511;51.232;9.420;2023-09-19T12:43:19;19.40;99.90
20700;DHT22;10511;51.232;9.420;2023-09-19T12:45:47;19.30;99.90
20700;DHT22;10511;51.232;9.420;2023-09-19T12:48:18;19.20;99.90
20700;DHT22;10511;51.232;9.420;2023-09-19T12:51:03;19.10;99.90
20700;DHT22;10511;51.232;9.420;2023-09-19T12:53:32;19.10;99.90
20700;DHT22;10511;51.232;9.420;2023-09-19T12:56:01;19.10;99.90
20700;DHT22;10511;51.232;9.420;2023-09-19T12:58:32;19.00;99.90
20700;DHT22;10511;51.232;9.420;2023-09-19T13:01:00;18.80;99.90
20700;DHT22;10511;51.232;9.420;2023-09-19T13:03:29;19.00;99.90
20700;DHT22;10511;51.232;9.420;2023-09-19T13:06:01;19.00;99.90
20700;DHT22;10511;51.232;9.420;2023-09-19T13:08:32;19.00;99.90
20700;DHT22;10511;51.232;9.420;2023-09-19T13:11:03;18.90;99.90
20700;DHT22;10511;51.232;9.420;2023-09-19T13:13:33;18.80;99.90
20700;DHT22;10511;51.232;9.420;2023-09-19T13:16:02;18.90;99.90
20700;DHT22;10511;51.232;9.420;2023-09-19T13:18:30;18.90;99.90
20700;DHT22;10511;51.232;9.420;2023-09-19T13:21:08;19.00;99.90
20700;DHT22;10511;51.232;9.420;2023-09-19T13:23:41;19.20;99.90
20700;DHT22;10511;51.232;9.420;2023-09-19T13:26:09;19.40;99.90
20700;DHT22;10511;51.232;9.420;2023-09-19T13:28:37;19.40;99.90
20700;DHT22;10511;51.232;9.420;2023-09-19T13:31:04;19.40;99.90
20700;DHT22;10511;51.232;9.420;2023-09-19T13:33:33;19.40;99.90
20700;DHT22;10511;51.232;9.420;2023-09-19T13:36:01;19.30;99.90
20700;DHT22;10511;51.232;9.420;2023-09-19T13:38:28;19.50;99.90
20700;DHT22;10511;51.232;9.420;2023-09-19T13:40:55;19.60;99.90
20700;DHT22;10511;51.232;9.420;2023-09-19T13:43:22;19.70;99.90
20700;DHT22;10511;51.232;9.420;2023-09-19T13:45:52;19.80;99.90
20700;DHT22;10511;51.232;9.420;2023-09-19T13:48:19;19.70;99.90
20700;DHT22;10511;51.232;9.420;2023-09-19T13:50:48;19.70;99.90
20700;DHT22;10511;51.232;9.420;2023-09-19T13:53:15;19.60;99.90
20700;DHT22;10511;51.232;9.420;2023-09-19T13:55:43;19.60;99.90
20700;DHT22;10511;51.232;9.420;2023-09-19T13:58:10;19.50;99.90
20700;DHT22;10511;51.232;9.420;2023-09-19T14:00:38;19.40;99.90
20700;DHT22;10511;51.232;9.420;2023-09-19T14:03:06;19.30;99.90
20700;DHT22;10511;51.232;9.420;2023-09-19T14:05:33;19.30;99.90
20700;DHT22;10511;51.232;9.420;2023-09-19T14:08:00;19.30;99.90
20700;DHT22;10511;51.232;9.420;2023-09-19T14:10:28;19.30;99.90
20700;DHT22;10511;51.232;9.420;2023-09-19T14:12:57;19.30;99.90
20700;DHT22;10511;51.232;9.420;2023-09-19T14:15:25;19.40;99.90
20700;DHT22;10511;51.232;9.420;2023-09-19T14:17:56;19.50;99.90
20700;DHT22;10511;51.232;9.420;2023-09-19T14:20:24;19.50;99.90
20700;DHT22;10511;51.232;9.420;2023-09-19T14:22:52;19.50;99.90
20700;DHT22;10511;51.232;9.420;2023-09-19T14:25:19;19.30;99.90
20700;DHT22;10511;51.232;9.420;2023-09-19T14:27:47;19.20;99.90
20700;DHT22;10511;51.232;9.420;2023-09-19T14:30:14;19.20;99.90
20700;DHT22;10511;51.232;9.420;2023-09-19T14:32:41;19.20;99.90
20700;DHT22;10511;51.232;9.420;2023-09-19T14:35:08;19.30;99.90
20700;DHT22;10511;51.232;9.420;2023-09-19T14:37:37;19.20;99.90
20700;DHT22;10511;51.232;9.420;2023-09-19T14:40:06;19.10;99.90
20700;DHT22;10511;51.232;9.420;2023-09-19T14:42:35;19.10;99.90
20700;DHT22;10511;51.232;9.420;2023-09-19T14:45:04;19.00;99.90
20700;DHT22;10511;51.232;9.420;2023-09-19T14:47:33;19.00;99.90
20700;DHT22;10511;51.232;9.420;2023-09-19T14:50:01;18.80;99.90
20700;DHT22;10511;51.232;9.420;2023-09-19T14:52:32;18.80;99.90
20700;DHT22;10511;51.232;9.420;2023-09-19T14:55:01;18.90;99.90
20700;DHT22;10511;51.232;9.420;2023-09-19T14:57:31;18.90;99.90
20700;DHT22;10511;51.232;9.420;2023-09-19T14:59:58;18.90;99.90
20700;DHT22;10511;51.232;9.420;2023-09-19T15:02:26;19.00;99.90
20700;DHT22;10511;51.232;9.420;2023-09-19T15:04:52;19.00;99.90
20700;DHT22;10511;51.232;9.420;2023-09-19T15:07:19;19.00;99.90
20700;DHT22;10511;51.232;9.420;2023-09-19T15:09:46;18.90;99.90
20700;DHT22;10511;51.232;9.420;2023-09-19T15:12:15;18.90;99.90
20700;DHT22;10511;51.232;9.420;2023-09-19T15:14:42;18.90;99.90
20700;DHT22;10511;51.232;9.420;2023-09-19T15:17:09;18.90;99.90
20700;DHT22;10511;51.232;9.420;2023-09-19T15:19:36;18.90;99.90
20700;DHT22;10511;51.232;9.420;2023-09-19T15:22:04;18.80;99.90
20700;DHT22;10511;51.232;9.420;2023-09-19T15:24:32;18.80;99.90
20700;DHT22;10511;51.232;9.420;2023-09-19T15:27:00;18.80;99.90
20700;DHT22;10511;51.232;9.420;2023-09-19T15:29:28;18.80;99.90
20700;DHT22;10511;51.232;9.420;2023-09-19T15:31:55;18.80;99.90
20700;DHT22;10511;51.232;9.420;2023-09-19T15:34:27;18.80;99.90
20700;DHT22;10511;51.232;9.420;2023-09-19T15:36:54;18.70;99.90
20700;DHT22;10511;51.232;9.420;2023-09-19T15:39:21;18.80;99.90
20700;DHT22;10511;51.232;9.420;2023-09-19T15:41:49;18.80;99.90
20700;DHT22;10511;51.232;9.420;2023-09-19T15:44:18;18.70;99.90
20700;DHT22;10511;51.232;9.420;2023-09-19T15:46:47;18.70;99.90
20700;DHT22;10511;51.232;9.420;2023-09-19T15:49:14;18.70;99.90
20700;DHT22;10511;51.232;9.420;2023-09-19T15:51:41;18.70;99.90
20700;DHT22;10511;51.232;9.420;2023-09-19T15:54:10;18.60;99.90
20700;DHT22;10511;51.232;9.420;2023-09-19T15:56:39;18.60;99.90
20700;DHT22;10511;51.232;9.420;2023-09-19T15:59:06;18.60;99.90
20700;DHT22;10511;51.232;9.420;2023-09-19T16:01:34;18.60;99.90
20700;DHT22;10511;51.232;9.420;2023-09-19T16:04:02;18.60;99.90